Time;durP1;ratioP1;P1;durP2;ratioP2;P2;SDS_P1;SDS_P2;PMS_P1;PMS_P2;Temp;Humidity;BMP_temperature;BMP_pressure;BME280_temperature;BME280_humidity;BME280_pressure;Samples;Min_cycle;Max_cycle;Signal;HPM_P1;HPM_P2
2021/07/12 00:02:04;;;;;;;18.50;17.30;;;15.60;99.90;;;;;;5019357;28;20472;-70
2021/07/12 00:04:31;;;;;;;18.33;17.23;;;15.60;99.90;;;;;;5019333;28;20469;-69
2021/07/12 00:06:58;;;;;;;19.30;17.97;;;15.60;99.90;;;;;;5024015;28;20477;-70
2021/07/12 00:09:26;;;;;;;18.73;17.63;;;15.60;99.90;;;;;;5019504;28;20461;-69
2021/07/12 00:11:55;;;;;;;19.40;18.00;;;15.60;99.90;;;;;;5017579;28;20826;-70
2021/07/12 00:14:22;;;;;;;18.63;17.43;;;15.60;99.90;;;;;;5024787;28;20515;-70
2021/07/12 00:16:49;;;;;;;19.37;18.17;;;15.60;99.90;;;;;;5025204;28;20457;-70
2021/07/12 00:19:17;;;;;;;19.63;18.33;;;15.60;99.90;;;;;;5021992;28;20511;-69
2021/07/12 00:21:46;;;;;;;18.30;17.23;;;15.60;99.90;;;;;;5020158;28;20472;-69
2021/07/12 00:24:19;;;;;;;19.90;18.40;;;15.50;99.90;;;;;;5023239;28;20591;-69
2021/07/12 00:26:47;;;;;;;19.93;18.07;;;15.50;99.90;;;;;;5022493;28;20469;-70
2021/07/12 00:29:17;;;;;;;19.33;18.13;;;15.40;99.90;;;;;;5017081;28;20554;-69
2021/07/12 00:31:44;;;;;;;20.97;19.67;;;15.40;99.90;;;;;;5027090;28;20460;-69
2021/07/12 00:34:11;;;;;;;20.90;19.17;;;15.40;99.90;;;;;;5022751;28;20502;-70
2021/07/12 00:36:38;;;;;;;20.87;19.53;;;15.40;99.90;;;;;;5022555;28;20558;-69
2021/07/12 00:39:06;;;;;;;19.70;18.50;;;15.30;99.90;;;;;;5021358;28;20469;-69
2021/07/12 00:41:33;;;;;;;20.77;19.27;;;15.30;99.90;;;;;;5018316;28;20476;-70
2021/07/12 00:44:01;;;;;;;20.43;19.03;;;15.30;99.90;;;;;;5024267;28;20475;-70
2021/07/12 00:46:29;;;;;;;19.63;18.17;;;15.30;99.90;;;;;;5019746;28;20472;-69
2021/07/12 00:48:56;;;;;;;21.07;19.13;;;15.30;99.90;;;;;;5019046;28;20467;-69
2021/07/12 00:51:23;;;;;;;20.53;19.10;;;15.30;99.90;;;;;;5025031;28;20461;-68
2021/07/12 00:53:50;;;;;;;21.20;19.07;;;15.30;99.90;;;;;;5023072;28;20489;-70
2021/07/12 00:56:17;;;;;;;21.23;19.53;;;15.30;99.90;;;;;;5015454;28;20492;-69
2021/07/12 00:58:44;;;;;;;20.60;18.60;;;15.30;99.90;;;;;;5025684;28;20472;-69
2021/07/12 01:01:11;;;;;;;19.90;18.50;;;15.20;99.90;;;;;;5021503;28;20842;-67
2021/07/12 01:03:40;;;;;;;24.63;19.50;;;15.20;99.90;;;;;;5020876;28;20469;-68
2021/07/12 01:06:07;;;;;;;19.47;18.27;;;15.20;99.90;;;;;;5023341;28;20464;-69
2021/07/12 01:08:34;;;;;;;19.53;18.03;;;15.20;99.90;;;;;;5020887;28;20548;-69
2021/07/12 01:11:08;;;;;;;20.27;18.10;;;15.20;99.90;;;;;;5020522;28;20479;-69
2021/07/12 01:13:42;;;;;;;20.03;18.67;;;15.10;99.90;;;;;;5025471;28;20468;-69
2021/07/12 01:16:25;;;;;;;19.70;18.40;;;15.10;99.90;;;;;;5018792;28;20835;-68
2021/07/12 01:18:59;;;;;;;21.37;19.77;;;15.10;99.90;;;;;;5016933;28;20953;-69
2021/07/12 01:22:04;;;;;;;20.17;18.40;;;15.10;99.90;;;;;;5021932;28;20824;-69
2021/07/12 01:24:59;;;;;;;20.00;18.60;;;15.10;99.90;;;;;;5018247;28;20461;-68
2021/07/12 01:28:08;;;;;;;20.80;19.17;;;15.00;99.90;;;;;;5019440;28;20468;-69
2021/07/12 01:30:57;;;;;;;21.13;19.23;;;15.00;99.90;;;;;;5011117;28;20484;-68
2021/07/12 01:33:33;;;;;;;19.23;17.77;;;15.10;99.90;;;;;;5017476;28;20500;-69
2021/07/12 01:36:05;;;;;;;19.73;18.27;;;15.10;99.90;;;;;;5021782;28;20473;-69
2021/07/12 01:38:44;;;;;;;20.77;19.00;;;15.10;99.90;;;;;;5016281;28;20819;-69
2021/07/12 01:41:20;;;;;;;20.03;18.40;;;15.20;99.90;;;;;;5015068;28;20512;-68
2021/07/12 01:43:55;;;;;;;20.17;18.83;;;15.20;99.90;;;;;;5024365;28;20464;-69
2021/07/12 01:46:29;;;;;;;19.53;18.33;;;15.20;99.90;;;;;;5017418;28;20545;-69
2021/07/12 01:49:05;;;;;;;19.33;18.03;;;15.20;99.90;;;;;;5020055;28;20492;-70
2021/07/12 01:51:37;;;;;;;18.90;17.60;;;15.20;99.90;;;;;;5017402;28;20465;-70
2021/07/12 01:54:11;;;;;;;20.23;18.93;;;15.20;99.90;;;;;;5023897;28;20530;-69
2021/07/12 01:56:45;;;;;;;21.27;19.30;;;15.20;99.90;;;;;;5022397;28;20829;-69
2021/07/12 01:59:19;;;;;;;22.00;19.73;;;15.20;99.90;;;;;;5027241;28;20465;-68
2021/07/12 02:01:48;;;;;;;20.90;19.30;;;15.00;99.90;;;;;;5024150;28;20461;-70
2021/07/12 02:04:19;;;;;;;21.77;19.93;;;15.00;99.90;;;;;;5022575;28;20465;-70
2021/07/12 02:06:48;;;;;;;20.93;19.53;;;14.90;99.90;;;;;;5024218;28;20465;-68
2021/07/12 02:09:16;;;;;;;20.70;19.10;;;14.90;99.90;;;;;;5023641;28;20986;-68
2021/07/12 02:11:45;;;;;;;20.30;18.67;;;14.90;99.90;;;;;;5025612;28;20471;-72
2021/07/12 02:14:18;;;;;;;21.00;19.30;;;14.90;99.90;;;;;;5024787;28;20480;-69
2021/07/12 02:16:47;;;;;;;20.10;18.50;;;14.80;99.90;;;;;;5024252;28;20460;-69
2021/07/12 02:19:16;;;;;;;20.37;19.00;;;14.70;99.90;;;;;;5028180;28;20955;-68
2021/07/12 02:21:47;;;;;;;20.43;19.17;;;14.70;99.90;;;;;;5025382;28;20467;-69
2021/07/12 02:24:18;;;;;;;21.53;19.43;;;14.70;99.90;;;;;;5024983;28;20479;-68
2021/07/12 02:26:47;;;;;;;22.47;20.53;;;14.70;99.90;;;;;;5022094;28;20469;-69
2021/07/12 02:29:17;;;;;;;21.10;19.33;;;14.70;99.90;;;;;;5026264;28;20453;-69
2021/07/12 02:31:46;;;;;;;20.90;19.20;;;14.70;99.90;;;;;;5023790;28;20469;-68
2021/07/12 02:34:14;;;;;;;20.70;18.90;;;14.70;99.90;;;;;;5022179;28;20588;-70
2021/07/12 02:36:44;;;;;;;21.33;19.60;;;14.60;99.90;;;;;;5023904;28;20461;-69
2021/07/12 02:39:12;;;;;;;21.27;19.83;;;14.60;99.90;;;;;;5023143;28;20491;-70
2021/07/12 02:41:40;;;;;;;22.57;20.20;;;14.50;99.90;;;;;;5021378;28;20496;-68
2021/07/12 02:44:10;;;;;;;21.30;19.60;;;14.60;99.90;;;;;;5019551;28;20978;-68
2021/07/12 02:46:39;;;;;;;21.40;19.50;;;14.50;99.90;;;;;;5026028;28;20949;-69
2021/07/12 02:49:08;;;;;;;22.80;20.50;;;14.50;99.90;;;;;;5027935;28;20834;-71
2021/07/12 02:51:38;;;;;;;22.10;20.10;;;14.50;99.90;;;;;;5024686;28;20955;-70
2021/07/12 02:54:09;;;;;;;21.20;19.50;;;14.50;99.90;;;;;;5022740;28;20480;-69
2021/07/12 02:56:36;;;;;;;21.77;19.97;;;14.50;99.90;;;;;;5027228;28;20457;-69
2021/07/12 02:59:03;;;;;;;23.43;20.57;;;14.50;99.90;;;;;;5020297;28;20472;-72
2021/07/12 03:01:30;;;;;;;21.80;20.10;;;14.50;99.90;;;;;;5025265;28;20456;-70
2021/07/12 03:03:57;;;;;;;21.37;19.50;;;14.40;99.90;;;;;;5022694;28;20465;-69
2021/07/12 03:06:31;;;;;;;22.33;20.37;;;14.40;99.90;;;;;;5025119;28;21129;-71
2021/07/12 03:09:03;;;;;;;25.10;22.83;;;14.40;99.90;;;;;;5021447;28;20458;-70
2021/07/12 03:11:38;;;;;;;25.07;22.67;;;14.50;99.90;;;;;;5023736;28;20656;-68
2021/07/12 03:14:12;;;;;;;26.33;23.83;;;14.60;99.90;;;;;;5021662;28;20489;-69
2021/07/12 03:16:40;;;;;;;24.57;22.53;;;14.70;99.90;;;;;;5024422;28;20469;-69
2021/07/12 03:19:12;;;;;;;25.67;23.73;;;14.80;99.90;;;;;;5024072;28;20473;-69
2021/07/12 03:21:41;;;;;;;24.33;21.90;;;14.90;99.90;;;;;;5026101;28;20460;-71
2021/07/12 03:24:09;;;;;;;23.30;21.50;;;14.90;99.90;;;;;;5025861;28;20465;-71
2021/07/12 03:26:41;;;;;;;23.40;21.20;;;15.00;99.90;;;;;;5021970;28;20961;-68
2021/07/12 03:29:08;;;;;;;24.43;22.40;;;15.00;99.90;;;;;;5019194;28;20465;-69
2021/07/12 03:31:39;;;;;;;23.77;21.47;;;15.00;99.90;;;;;;5023082;28;20455;-67
2021/07/12 03:34:06;;;;;;;23.77;21.00;;;15.10;99.90;;;;;;5016744;28;20818;-71
2021/07/12 03:36:34;;;;;;;22.93;21.03;;;15.10;99.90;;;;;;5027127;28;20488;-71
2021/07/12 03:39:03;;;;;;;23.77;20.70;;;15.10;99.90;;;;;;5027739;28;20488;-71
2021/07/12 03:41:31;;;;;;;23.33;20.80;;;15.00;99.90;;;;;;5024802;28;20917;-71
2021/07/12 03:44:00;;;;;;;27.77;21.83;;;15.00;99.90;;;;;;5025863;28;20844;-71
2021/07/12 03:46:28;;;;;;;22.60;20.23;;;15.00;99.90;;;;;;5024610;28;20468;-72
2021/07/12 03:48:56;;;;;;;21.87;20.10;;;15.10;99.90;;;;;;5025649;28;20465;-71
2021/07/12 03:51:25;;;;;;;22.53;20.40;;;15.10;99.90;;;;;;5025855;28;20552;-71
2021/07/12 03:53:52;;;;;;;24.27;21.97;;;15.10;99.90;;;;;;5028517;28;20456;-72
2021/07/12 03:56:19;;;;;;;24.57;22.20;;;15.20;99.90;;;;;;5021048;28;20492;-71
2021/07/12 03:58:47;;;;;;;23.07;20.90;;;15.20;99.90;;;;;;5019437;28;21040;-70
2021/07/12 04:01:19;;;;;;;27.50;21.77;;;15.30;99.90;;;;;;5021530;28;20465;-71
2021/07/12 04:03:48;;;;;;;25.27;22.80;;;15.30;99.90;;;;;;5015942;28;20465;-71
2021/07/12 04:06:15;;;;;;;23.73;21.20;;;15.40;99.90;;;;;;5022891;28;20816;-71
2021/07/12 04:08:42;;;;;;;24.37;22.10;;;15.50;99.90;;;;;;5014726;28;20985;-71
2021/07/12 04:11:10;;;;;;;23.50;21.40;;;15.50;99.90;;;;;;5027140;28;20460;-71
2021/07/12 04:13:37;;;;;;;30.27;22.37;;;15.60;99.90;;;;;;5023014;28;20459;-71
2021/07/12 04:16:05;;;;;;;23.70;21.40;;;15.70;99.90;;;;;;5021857;28;20495;-71
2021/07/12 04:18:34;;;;;;;23.43;20.90;;;15.70;99.90;;;;;;5020889;28;20869;-73
2021/07/12 04:21:02;;;;;;;24.70;22.27;;;15.80;99.90;;;;;;5023048;28;21062;-68
2021/07/12 04:23:29;;;;;;;22.67;20.97;;;15.90;99.90;;;;;;5022586;28;20465;-69
2021/07/12 04:25:56;;;;;;;23.03;21.27;;;15.90;99.90;;;;;;5020562;28;20457;-68
2021/07/12 04:28:23;;;;;;;24.10;21.87;;;16.00;99.90;;;;;;5020420;28;20465;-71
2021/07/12 04:30:50;;;;;;;23.07;21.03;;;16.00;99.90;;;;;;5023278;28;20461;-71
2021/07/12 04:33:17;;;;;;;24.20;21.93;;;16.10;99.90;;;;;;5022057;28;20466;-73
2021/07/12 04:35:47;;;;;;;23.87;21.93;;;16.00;99.90;;;;;;5020978;28;20515;-72
2021/07/12 04:38:14;;;;;;;23.90;21.77;;;16.20;99.90;;;;;;5018013;28;20472;-71
2021/07/12 04:40:41;;;;;;;24.30;22.30;;;16.20;99.90;;;;;;5021924;28;20485;-71
2021/07/12 04:43:08;;;;;;;23.37;21.60;;;16.20;99.90;;;;;;5018409;28;20461;-69
2021/07/12 04:45:37;;;;;;;23.63;21.10;;;16.30;99.90;;;;;;5022001;28;20959;-69
2021/07/12 04:48:06;;;;;;;25.57;22.93;;;16.30;99.90;;;;;;5019994;28;21063;-70
2021/07/12 04:50:33;;;;;;;23.13;21.00;;;16.40;99.90;;;;;;5024074;28;20472;-69
2021/07/12 04:53:02;;;;;;;24.30;21.30;;;16.40;99.90;;;;;;5025139;28;20468;-69
2021/07/12 04:55:29;;;;;;;29.47;22.60;;;16.50;99.90;;;;;;5020480;28;20477;-69
2021/07/12 04:57:56;;;;;;;21.33;19.67;;;16.60;99.90;;;;;;5017422;28;20464;-69
2021/07/12 05:00:23;;;;;;;22.10;20.30;;;16.60;99.90;;;;;;5025227;28;20465;-69
2021/07/12 05:02:50;;;;;;;20.97;19.57;;;16.70;99.90;;;;;;5025153;28;20460;-70
2021/07/12 05:05:17;;;;;;;22.97;21.23;;;16.70;99.90;;;;;;5017230;28;20473;-69
2021/07/12 05:07:45;;;;;;;20.90;19.20;;;16.80;99.90;;;;;;5019925;28;20985;-69
2021/07/12 05:10:15;;;;;;;21.40;19.60;;;16.90;99.90;;;;;;5017299;28;20472;-69
2021/07/12 05:12:42;;;;;;;22.10;19.97;;;17.00;99.90;;;;;;5024226;28;20462;-69
2021/07/12 05:15:12;;;;;;;23.10;20.80;;;17.00;99.90;;;;;;5023171;28;20496;-69
2021/07/12 05:17:39;;;;;;;21.53;19.60;;;17.10;99.90;;;;;;5021887;28;20472;-69
2021/07/12 05:20:08;;;;;;;22.87;20.63;;;17.20;99.90;;;;;;5022237;28;20483;-69
2021/07/12 05:22:36;;;;;;;22.50;20.90;;;17.40;99.90;;;;;;5022413;28;20465;-69
2021/07/12 05:25:04;;;;;;;22.63;20.73;;;17.50;99.90;;;;;;5020147;28;20468;-69
2021/07/12 05:27:33;;;;;;;21.60;20.00;;;17.70;99.90;;;;;;5022275;28;20460;-69
2021/07/12 05:30:00;;;;;;;22.90;20.93;;;17.80;99.90;;;;;;5028029;28;20482;-70
2021/07/12 05:32:28;;;;;;;22.10;20.27;;;17.80;99.90;;;;;;5026445;28;20546;-69
2021/07/12 05:34:56;;;;;;;21.33;19.83;;;17.90;99.90;;;;;;5022223;28;20485;-68
2021/07/12 05:37:23;;;;;;;21.33;19.73;;;18.00;99.90;;;;;;5026544;28;20482;-69
2021/07/12 05:39:51;;;;;;;22.00;20.00;;;18.20;99.90;;;;;;5020390;28;20807;-69
2021/07/12 05:42:19;;;;;;;22.13;20.53;;;18.20;99.90;;;;;;5023292;28;20457;-69
2021/07/12 05:44:47;;;;;;;21.13;19.70;;;18.40;99.90;;;;;;5023515;28;20465;-68
2021/07/12 05:47:14;;;;;;;21.50;19.53;;;18.50;99.90;;;;;;5024879;28;20471;-69
2021/07/12 05:49:41;;;;;;;22.90;20.60;;;18.60;99.90;;;;;;5021948;28;21066;-68
2021/07/12 05:52:09;;;;;;;22.17;20.50;;;18.70;99.90;;;;;;5026761;28;20472;-69
2021/07/12 05:54:36;;;;;;;22.03;20.43;;;18.70;99.90;;;;;;5023249;28;20972;-69
2021/07/12 05:57:03;;;;;;;21.27;19.40;;;18.70;99.90;;;;;;5024988;28;20459;-68
2021/07/12 05:59:30;;;;;;;21.10;19.70;;;18.70;99.90;;;;;;5023098;28;20463;-68
2021/07/12 06:02:00;;;;;;;21.93;19.83;;;18.60;99.90;;;;;;5018594;28;20477;-69
2021/07/12 06:04:27;;;;;;;23.70;21.53;;;18.70;99.90;;;;;;5021528;28;20473;-69
2021/07/12 06:06:57;;;;;;;22.57;20.67;;;18.80;99.90;;;;;;5023625;28;20473;-69
2021/07/12 06:09:24;;;;;;;22.40;20.63;;;18.80;99.90;;;;;;5024475;28;20527;-68
2021/07/12 06:11:51;;;;;;;22.70;20.40;;;18.90;99.90;;;;;;5027230;28;20825;-69
2021/07/12 06:14:18;;;;;;;21.50;20.00;;;18.90;99.90;;;;;;5022746;28;20461;-68
2021/07/12 06:16:45;;;;;;;23.10;20.10;;;19.00;99.90;;;;;;5026096;28;20496;-69
2021/07/12 06:19:13;;;;;;;21.40;19.83;;;18.90;99.90;;;;;;5025420;28;20470;-69
2021/07/12 06:21:42;;;;;;;21.83;19.90;;;19.00;99.90;;;;;;5020941;28;20465;-69
2021/07/12 06:24:09;;;;;;;23.10;21.00;;;19.00;99.90;;;;;;5025662;28;20468;-70
2021/07/12 06:26:36;;;;;;;22.57;20.77;;;18.90;99.90;;;;;;5024333;28;20869;-69
2021/07/12 06:29:03;;;;;;;22.90;20.50;;;18.90;99.90;;;;;;5023266;28;20465;-69
2021/07/12 06:31:30;;;;;;;23.20;20.83;;;19.00;99.90;;;;;;5023527;28;20463;-69
2021/07/12 06:33:58;;;;;;;22.57;20.80;;;19.10;99.90;;;;;;5020818;28;20461;-69
2021/07/12 06:36:28;;;;;;;21.77;20.17;;;19.20;99.90;;;;;;5022063;28;20542;-69
2021/07/12 06:38:54;;;;;;;21.17;19.60;;;19.30;99.90;;;;;;5020883;28;20908;-71
2021/07/12 06:41:22;;;;;;;22.17;20.47;;;19.50;99.90;;;;;;5025349;28;20985;-69
2021/07/12 06:43:51;;;;;;;23.50;21.50;;;19.60;99.90;;;;;;5017476;28;20516;-69
2021/07/12 06:46:18;;;;;;;21.90;19.90;;;19.70;99.90;;;;;;5021653;28;20465;-69
2021/07/12 06:48:45;;;;;;;22.43;20.67;;;19.90;99.90;;;;;;5014523;28;20449;-69
2021/07/12 06:51:12;;;;;;;21.93;20.13;;;19.90;99.90;;;;;;5024943;28;20457;-68
2021/07/12 06:53:40;;;;;;;21.43;19.80;;;19.90;99.90;;;;;;5021113;28;20464;-69
2021/07/12 06:56:07;;;;;;;21.57;19.93;;;20.00;99.90;;;;;;5024685;28;20488;-68
2021/07/12 06:58:35;;;;;;;23.07;20.70;;;20.20;99.90;;;;;;5021686;28;20912;-69
2021/07/12 07:01:02;;;;;;;22.67;20.77;;;20.30;99.90;;;;;;5022688;28;20461;-70
2021/07/12 07:03:29;;;;;;;21.00;19.43;;;20.40;99.90;;;;;;5018888;28;20484;-69
2021/07/12 07:05:56;;;;;;;22.90;20.87;;;20.50;99.90;;;;;;5023130;28;20464;-69
2021/07/12 07:08:24;;;;;;;22.07;20.37;;;20.60;99.90;;;;;;5022951;28;20887;-68
2021/07/12 07:10:54;;;;;;;21.27;19.40;;;20.70;99.90;;;;;;5023693;28;20496;-69
2021/07/12 07:13:21;;;;;;;21.80;19.80;;;20.80;99.90;;;;;;5027830;28;20491;-69
2021/07/12 07:15:48;;;;;;;22.47;20.47;;;21.00;99.90;;;;;;5023153;28;20488;-69
2021/07/12 07:18:15;;;;;;;22.37;19.90;;;21.30;99.90;;;;;;5020959;28;20500;-69
2021/07/12 07:20:42;;;;;;;21.03;19.20;;;21.40;99.90;;;;;;5024395;28;20798;-71
2021/07/12 07:23:09;;;;;;;20.53;18.93;;;21.70;99.90;;;;;;5020694;28;20510;-69
2021/07/12 07:25:36;;;;;;;25.00;19.63;;;21.80;99.90;;;;;;5026836;28;20480;-71
2021/07/12 07:28:05;;;;;;;22.37;19.33;;;22.20;99.90;;;;;;5022385;28;20472;-70
2021/07/12 07:30:32;;;;;;;19.87;18.20;;;22.50;99.90;;;;;;5025819;28;20456;-69
2021/07/12 07:32:59;;;;;;;19.93;18.33;;;22.50;99.90;;;;;;5025064;28;20491;-69
2021/07/12 07:35:26;;;;;;;21.50;19.50;;;22.40;99.90;;;;;;5024389;28;20492;-69
2021/07/12 07:37:53;;;;;;;20.80;18.90;;;22.50;99.90;;;;;;5022479;28;20472;-69
2021/07/12 07:40:22;;;;;;;20.17;18.13;;;22.70;99.90;;;;;;5018548;28;20828;-70
2021/07/12 07:42:49;;;;;;;20.07;18.47;;;22.70;99.90;;;;;;5025585;28;20479;-70
2021/07/12 07:45:18;;;;;;;21.33;19.43;;;23.00;99.90;;;;;;5023112;28;20832;-69
2021/07/12 07:47:48;;;;;;;19.40;17.70;;;22.90;99.90;;;;;;5022523;28;20461;-70
2021/07/12 07:50:16;;;;;;;20.43;18.43;;;23.00;99.90;;;;;;5022357;28;20479;-69
2021/07/12 07:52:43;;;;;;;21.60;19.40;;;23.10;99.90;;;;;;5022805;28;20465;-69
2021/07/12 07:55:12;;;;;;;19.20;17.50;;;23.00;99.90;;;;;;5023132;28;20466;-69
2021/07/12 07:57:39;;;;;;;21.70;19.97;;;23.10;99.90;;;;;;5025849;28;20457;-70
2021/07/12 08:00:08;;;;;;;19.90;18.30;;;23.10;99.90;;;;;;5021474;28;20461;-70
2021/07/12 08:02:37;;;;;;;19.97;18.13;;;23.10;99.90;;;;;;5021424;28;20457;-69
2021/07/12 08:05:06;;;;;;;20.47;18.97;;;23.20;99.90;;;;;;5020535;28;20853;-70
2021/07/12 08:07:34;;;;;;;22.43;18.30;;;23.40;99.90;;;;;;5024348;28;20872;-69
2021/07/12 08:10:01;;;;;;;19.87;18.40;;;23.60;99.90;;;;;;5027761;28;20456;-71
2021/07/12 08:12:28;;;;;;;19.63;17.80;;;23.90;99.90;;;;;;5023089;28;20524;-70
2021/07/12 08:14:55;;;;;;;19.27;17.60;;;24.30;99.90;;;;;;5019849;28;20463;-70
2021/07/12 08:17:21;;;;;;;19.07;17.07;;;24.90;99.90;;;;;;5016815;28;20496;-69
2021/07/12 08:19:50;;;;;;;17.33;16.13;;;25.70;99.90;;;;;;5019152;28;20508;-70
2021/07/12 08:22:18;;;;;;;18.00;16.70;;;26.50;99.90;;;;;;5023283;28;20940;-70
2021/07/12 08:24:45;;;;;;;16.87;15.67;;;27.20;99.90;;;;;;5022239;28;20460;-70
2021/07/12 08:27:12;;;;;;;17.43;16.23;;;27.90;99.90;;;;;;5020620;28;20497;-71
2021/07/12 08:29:39;;;;;;;16.77;15.70;;;28.70;99.90;;;;;;5022705;28;20472;-72
2021/07/12 08:32:06;;;;;;;17.33;16.20;;;29.70;99.90;;;;;;5021199;28;20468;-70
2021/07/12 08:34:40;;;;;;;17.67;16.67;;;30.10;99.90;;;;;;5017109;28;20943;-70
2021/07/12 08:37:08;;;;;;;17.67;16.47;;;29.50;99.90;;;;;;5025294;28;20584;-70
2021/07/12 08:39:35;;;;;;;19.00;17.50;;;30.20;99.90;;;;;;5028313;28;20506;-72
2021/07/12 08:42:02;;;;;;;17.60;16.60;;;29.50;99.90;;;;;;5022962;28;20465;-71
2021/07/12 08:44:29;;;;;;;19.73;17.80;;;29.80;99.90;;;;;;5020015;28;20840;-70
2021/07/12 08:46:56;;;;;;;18.37;17.17;;;30.00;99.90;;;;;;5018883;28;20473;-70
2021/07/12 08:49:23;;;;;;;18.73;17.13;;;29.90;99.90;;;;;;5023867;28;20467;-71
2021/07/12 08:51:50;;;;;;;17.70;16.50;;;30.40;99.90;;;;;;5023130;28;20464;-71
2021/07/12 08:54:19;;;;;;;18.30;16.87;;;30.90;99.90;;;;;;5018858;28;20883;-71
2021/07/12 08:56:46;;;;;;;17.60;16.57;;;30.60;99.90;;;;;;5022275;28;20552;-71
2021/07/12 08:59:30;;;;;;;17.33;16.03;;;30.70;99.90;;;;;;5021987;28;20470;-70
2021/07/12 09:02:05;;;;;;;17.77;16.87;;;30.70;99.90;;;;;;5020426;28;20465;-71
2021/07/12 09:04:33;;;;;;;18.47;17.07;;;30.90;99.90;;;;;;5020634;28;20460;-70
2021/07/12 09:07:02;;;;;;;18.50;17.20;;;31.80;99.90;;;;;;5016103;28;20462;-72
2021/07/12 09:09:30;;;;;;;17.63;16.70;;;31.60;99.90;;;;;;5024593;28;20955;-70
2021/07/12 09:12:08;;;;;;;16.90;15.80;;;31.30;99.90;;;;;;5022901;28;20473;-71
2021/07/12 09:14:39;;;;;;;17.33;16.23;;;31.90;99.50;;;;;;5023480;28;20457;-70
2021/07/12 09:17:07;;;;;;;19.60;17.93;;;31.50;98.90;;;;;;5022074;28;21088;-71
2021/07/12 09:19:36;;;;;;;17.33;16.33;;;31.70;98.60;;;;;;5019028;28;20472;-71
2021/07/12 09:22:06;;;;;;;19.30;17.70;;;32.00;98.80;;;;;;5017264;28;20465;-72
2021/07/12 09:24:42;;;;;;;18.90;17.50;;;32.20;97.60;;;;;;5016364;28;20470;-71
2021/07/12 09:27:14;;;;;;;18.47;17.47;;;32.10;97.50;;;;;;5016546;28;20885;-70
2021/07/12 09:29:44;;;;;;;18.37;17.30;;;31.90;98.20;;;;;;5020568;28;20460;-71
2021/07/12 09:32:12;;;;;;;17.03;16.20;;;32.60;97.60;;;;;;5021552;28;20463;-71
2021/07/12 09:34:39;;;;;;;17.57;16.50;;;32.80;96.50;;;;;;5018169;28;20480;-71
2021/07/12 09:37:08;;;;;;;17.70;16.40;;;33.20;95.50;;;;;;5016953;28;20507;-71
2021/07/12 09:39:38;;;;;;;17.40;16.40;;;33.20;94.60;;;;;;5020215;28;20480;-71
2021/07/12 09:42:09;;;;;;;18.13;17.03;;;31.60;96.30;;;;;;5023113;28;20460;-70
2021/07/12 09:44:39;;;;;;;17.43;16.17;;;31.60;96.50;;;;;;5020818;28;20465;-73
2021/07/12 09:47:09;;;;;;;17.13;15.83;;;32.20;95.80;;;;;;5016287;28;20479;-70
2021/07/12 09:49:36;;;;;;;16.20;15.40;;;31.50;95.60;;;;;;5019872;28;20472;-70
2021/07/12 09:52:08;;;;;;;16.70;15.80;;;30.80;96.10;;;;;;5022176;28;20469;-71
2021/07/12 09:54:37;;;;;;;17.47;16.30;;;30.40;96.90;;;;;;5020305;28;20465;-71
2021/07/12 09:57:08;;;;;;;16.00;15.10;;;31.00;97.10;;;;;;5018396;28;20516;-71
2021/07/12 09:59:37;;;;;;;16.80;15.70;;;31.30;96.10;;;;;;5022836;28;20464;-72
2021/07/12 10:02:05;;;;;;;16.23;15.23;;;30.10;95.10;;;;;;5020325;28;20465;-70
2021/07/12 10:04:32;;;;;;;16.87;15.67;;;29.80;98.90;;;;;;5021119;28;20461;-71
2021/07/12 10:07:01;;;;;;;16.20;15.27;;;30.00;99.50;;;;;;5022206;28;20465;-70
2021/07/12 10:09:28;;;;;;;17.93;16.40;;;30.00;99.20;;;;;;5022172;28;20465;-74
2021/07/12 10:11:55;;;;;;;16.20;15.30;;;30.00;98.90;;;;;;5019462;28;20567;-71
2021/07/12 10:14:25;;;;;;;16.13;15.20;;;30.40;98.90;;;;;;5017597;28;20465;-71
2021/07/12 10:16:53;;;;;;;16.50;15.50;;;30.20;98.80;;;;;;5021212;28;20489;-70
2021/07/12 10:19:21;;;;;;;16.60;15.37;;;31.00;98.10;;;;;;5025912;28;20468;-71
2021/07/12 10:21:51;;;;;;;15.53;14.47;;;31.30;96.90;;;;;;5026335;28;20983;-71
2021/07/12 10:24:25;;;;;;;17.83;16.23;;;31.60;96.70;;;;;;5027513;28;20795;-71
2021/07/12 10:26:57;;;;;;;15.83;14.83;;;31.50;96.10;;;;;;5020744;28;20472;-71
2021/07/12 10:29:30;;;;;;;16.73;15.80;;;31.50;96.00;;;;;;5017338;28;20826;-71
2021/07/12 10:32:10;;;;;;;17.00;16.03;;;32.00;96.00;;;;;;5022436;28;20453;-71
2021/07/12 10:34:41;;;;;;;16.33;15.53;;;32.20;94.90;;;;;;5022498;28;20568;-70
2021/07/12 10:37:17;;;;;;;15.87;14.97;;;32.80;94.70;;;;;;5023896;28;20500;-71
2021/07/12 10:40:09;;;;;;;17.53;16.23;;;32.80;92.30;;;;;;5024750;28;20497;-73
2021/07/12 10:42:48;;;;;;;16.27;15.37;;;32.80;93.80;;;;;;5024577;28;20461;-71
2021/07/12 10:45:18;;;;;;;15.70;14.70;;;32.90;93.20;;;;;;5025679;28;20966;-70
2021/07/12 10:47:46;;;;;;;16.40;15.60;;;32.00;93.90;;;;;;5020069;28;20820;-73
2021/07/12 10:50:42;;;;;;;16.50;15.50;;;31.70;94.20;;;;;;5024671;28;20476;-72
2021/07/12 10:53:35;;;;;;;17.10;16.10;;;31.30;94.00;;;;;;5020641;28;20465;-70
2021/07/12 10:56:13;;;;;;;16.60;15.53;;;30.60;95.20;;;;;;5025852;28;20548;-73
2021/07/12 10:58:44;;;;;;;16.63;15.63;;;30.80;94.50;;;;;;5025115;28;20467;-70
2021/07/12 11:01:17;;;;;;;17.33;16.10;;;30.00;94.50;;;;;;5023961;28;20465;-70
2021/07/12 11:03:46;;;;;;;17.30;16.30;;;30.10;96.60;;;;;;5022626;28;20471;-70
2021/07/12 11:06:15;;;;;;;15.03;14.23;;;30.50;95.70;;;;;;5020585;28;20990;-72
2021/07/12 11:08:42;;;;;;;16.50;15.30;;;31.00;96.40;;;;;;5020328;28;20458;-71
2021/07/12 11:11:09;;;;;;;16.13;14.80;;;31.50;94.90;;;;;;5016374;28;20973;-71
2021/07/12 11:13:53;;;;;;;16.13;15.20;;;31.50;94.50;;;;;;5022176;28;20472;-70
2021/07/12 11:16:24;;;;;;;16.67;15.57;;;31.70;93.90;;;;;;5026402;28;20501;-70
2021/07/12 11:18:52;;;;;;;15.63;14.80;;;32.10;92.60;;;;;;5018689;28;20981;-71
2021/07/12 11:21:29;;;;;;;15.67;14.97;;;32.30;91.40;;;;;;5024498;28;20469;-72
2021/07/12 11:23:57;;;;;;;15.40;14.60;;;32.20;90.70;;;;;;5024088;28;20472;-71
2021/07/12 11:27:03;;;;;;;15.40;14.53;;;32.30;89.30;;;;;;5018391;28;20468;-70
2021/07/12 11:29:36;;;;;;;15.10;14.17;;;31.90;91.00;;;;;;5013551;28;20476;-71
2021/07/12 11:32:16;;;;;;;15.57;14.87;;;31.90;91.00;;;;;;5021515;28;20464;-71
2021/07/12 11:34:55;;;;;;;15.13;14.33;;;32.00;90.80;;;;;;5023610;28;20496;-71
2021/07/12 11:37:28;;;;;;;15.97;14.90;;;32.30;91.00;;;;;;5020057;28;20489;-72
2021/07/12 11:39:58;;;;;;;14.77;14.07;;;32.80;91.40;;;;;;5020858;28;20511;-71
2021/07/12 11:42:28;;;;;;;14.30;13.60;;;32.80;91.10;;;;;;5023571;28;20495;-72
2021/07/12 11:45:01;;;;;;;14.53;13.73;;;32.60;89.20;;;;;;5024435;28;20919;-71
2021/07/12 11:47:33;;;;;;;15.07;14.07;;;32.00;87.00;;;;;;5016194;28;20472;-71
2021/07/12 11:50:02;;;;;;;15.20;14.50;;;31.90;89.30;;;;;;5021355;28;20456;-71
2021/07/12 11:52:31;;;;;;;14.27;13.57;;;31.60;90.00;;;;;;5025588;28;20477;-72
2021/07/12 11:55:06;;;;;;;14.87;14.10;;;31.20;90.10;;;;;;5021049;28;20465;-72
2021/07/12 11:57:33;;;;;;;15.13;14.23;;;30.90;90.40;;;;;;5024585;28;20499;-71
2021/07/12 12:00:00;;;;;;;15.50;14.70;;;30.70;91.30;;;;;;5024630;28;20481;-71
2021/07/12 12:02:27;;;;;;;14.33;13.53;;;30.40;91.60;;;;;;5029001;28;20510;-71
2021/07/12 12:04:59;;;;;;;14.80;13.80;;;30.90;91.20;;;;;;5021964;28;20499;-71
2021/07/12 12:07:31;;;;;;;16.00;14.87;;;31.30;91.60;;;;;;5017534;28;20465;-71
2021/07/12 12:10:00;;;;;;;14.83;14.10;;;31.80;91.00;;;;;;5019370;28;20460;-71
2021/07/12 12:12:31;;;;;;;15.57;14.77;;;32.60;90.70;;;;;;5023933;28;20483;-72
2021/07/12 12:14:59;;;;;;;14.73;14.03;;;32.80;89.70;;;;;;5024343;28;20461;-73
2021/07/12 12:17:27;;;;;;;14.30;13.50;;;32.80;90.00;;;;;;5018033;28;20526;-73
2021/07/12 12:20:15;;;;;;;15.30;14.60;;;32.50;88.50;;;;;;5019477;28;20452;-71
2021/07/12 12:23:16;;;;;;;15.60;14.70;;;32.20;88.30;;;;;;5018513;28;20475;-71
2021/07/12 12:25:54;;;;;;;15.80;14.60;;;31.40;89.70;;;;;;5023148;28;20518;-71
2021/07/12 12:28:33;;;;;;;14.97;14.17;;;31.30;88.90;;;;;;5022633;28;20456;-73
2021/07/12 12:31:02;;;;;;;14.80;14.20;;;31.00;90.40;;;;;;5019976;28;20457;-72
2021/07/12 12:33:31;;;;;;;16.63;15.40;;;30.80;90.80;;;;;;5017328;28;21006;-71
2021/07/12 12:36:05;;;;;;;15.93;15.00;;;30.30;91.60;;;;;;5016638;28;20488;-71
2021/07/12 12:38:32;;;;;;;15.87;15.00;;;30.30;92.20;;;;;;5026556;28;20517;-71
2021/07/12 12:41:02;;;;;;;15.40;14.50;;;30.20;92.00;;;;;;5021458;28;21033;-70
2021/07/12 12:43:29;;;;;;;15.80;14.70;;;30.30;92.50;;;;;;5023579;28;20468;-70